createdAt,value
2022-12-15T00:00:03.518Z,35.07
2022-12-15T00:02:50.823Z,35.30
2022-12-15T00:05:36.761Z,37.30
2022-12-15T00:08:25.791Z,38.33
2022-12-15T00:11:11.121Z,38.33
2022-12-15T00:13:56.784Z,36.33
2022-12-15T00:16:42.263Z,35.73
2022-12-15T00:19:29.367Z,36.17
2022-12-15T00:22:14.682Z,36.33
2022-12-15T00:25:00.224Z,35.30
2022-12-15T00:27:46.137Z,36.90
2022-12-15T00:30:32.092Z,35.13
2022-12-15T00:33:17.443Z,34.87
2022-12-15T00:36:04.673Z,35.67
2022-12-15T00:38:45.079Z,35.60
2022-12-15T00:41:15.533Z,36.00
2022-12-15T00:43:44.052Z,36.70
2022-12-15T00:46:30.140Z,35.27
2022-12-15T00:48:58.885Z,34.63
2022-12-15T00:51:46.452Z,35.43
2022-12-15T00:54:31.972Z,34.90
2022-12-15T00:57:17.530Z,34.67
2022-12-15T01:00:02.868Z,35.30
2022-12-15T01:02:48.522Z,35.10
2022-12-15T01:05:34.239Z,37.93
2022-12-15T01:08:20.907Z,39.60
2022-12-15T01:11:06.294Z,39.90
2022-12-15T01:13:52.046Z,38.87
2022-12-15T01:16:37.339Z,39.80
2022-12-15T01:19:23.174Z,38.37
2022-12-15T01:21:51.349Z,39.33
2022-12-15T01:24:20.891Z,40.37
2022-12-15T01:26:49.200Z,38.80
2022-12-15T01:29:17.456Z,41.00
2022-12-15T01:31:49.882Z,40.33
2022-12-15T01:34:20.132Z,40.17
2022-12-15T01:36:48.498Z,40.47
2022-12-15T01:39:17.175Z,40.53
2022-12-15T01:41:45.793Z,40.97
2022-12-15T01:44:21.719Z,40.67
2022-12-15T01:46:52.345Z,42.27
2022-12-15T01:49:27.375Z,40.87
2022-12-15T01:52:00.489Z,39.90
2022-12-15T01:54:31.869Z,41.80
2022-12-15T01:57:05.996Z,40.40
2022-12-15T01:59:38.813Z,41.73
2022-12-15T02:02:07.393Z,42.03
2022-12-15T02:04:37.851Z,41.30
2022-12-15T02:07:06.152Z,41.20
2022-12-15T02:09:34.398Z,42.17
2022-12-15T02:12:11.038Z,43.20
2022-12-15T02:14:48.433Z,41.33
2022-12-15T02:17:26.127Z,40.70
2022-12-15T02:20:25.158Z,41.73
2022-12-15T02:23:37.634Z,43.50
2022-12-15T02:26:44.333Z,39.53
2022-12-15T02:29:41.239Z,43.00
2022-12-15T02:32:13.558Z,43.10
2022-12-15T02:34:45.449Z,44.40
2022-12-15T02:37:19.101Z,43.53
2022-12-15T02:39:47.374Z,44.23
2022-12-15T02:42:15.667Z,44.17
2022-12-15T02:44:48.604Z,46.27
2022-12-15T02:47:31.259Z,45.40
2022-12-15T02:50:18.079Z,44.50
2022-12-15T02:53:00.063Z,45.20
2022-12-15T02:55:37.132Z,47.27
2022-12-15T02:58:12.368Z,44.93
2022-12-15T03:00:44.460Z,46.57
2022-12-15T03:03:20.218Z,44.90
2022-12-15T03:05:49.069Z,44.37
2022-12-15T03:08:17.303Z,44.77
2022-12-15T03:10:45.549Z,46.90
2022-12-15T03:13:14.231Z,45.17
2022-12-15T03:15:42.631Z,44.53
2022-12-15T03:18:10.897Z,43.47
2022-12-15T03:20:40.430Z,43.57
2022-12-15T03:23:08.705Z,44.90
2022-12-15T03:25:37.751Z,42.13
2022-12-15T03:28:06.149Z,43.00
2022-12-15T03:30:34.301Z,43.47
2022-12-15T03:33:02.490Z,44.60
2022-12-15T03:35:31.057Z,45.63
2022-12-15T03:38:00.879Z,42.97
2022-12-15T03:40:29.059Z,45.23
2022-12-15T03:42:58.133Z,44.53
2022-12-15T03:45:28.692Z,44.10
2022-12-15T03:47:58.242Z,44.00
2022-12-15T03:50:28.813Z,44.90
2022-12-15T03:52:58.943Z,45.93
2022-12-15T03:55:29.244Z,45.37
2022-12-15T03:57:58.055Z,46.03
2022-12-15T04:00:26.769Z,46.37
2022-12-15T04:02:55.227Z,46.03
2022-12-15T04:05:26.109Z,46.30
2022-12-15T04:07:54.633Z,45.47
2022-12-15T04:10:26.296Z,45.47
2022-12-15T04:13:00.285Z,48.27
2022-12-15T04:15:29.291Z,46.57
2022-12-15T04:17:58.373Z,49.27
2022-12-15T04:20:26.604Z,45.53
2022-12-15T04:22:54.781Z,46.07
2022-12-15T04:25:42.606Z,47.97
2022-12-15T04:28:30.657Z,45.23
2022-12-15T04:31:19.422Z,48.07
2022-12-15T04:34:08.148Z,46.53
2022-12-15T04:36:55.079Z,46.17
2022-12-15T04:39:40.930Z,44.77
2022-12-15T04:42:26.369Z,44.27
2022-12-15T04:45:20.542Z,43.77
2022-12-15T04:48:06.526Z,44.83
2022-12-15T04:50:52.407Z,45.57
2022-12-15T04:53:39.739Z,45.10
2022-12-15T04:56:29.993Z,44.53
2022-12-15T04:59:15.800Z,45.43
2022-12-15T05:02:03.222Z,43.50
2022-12-15T05:04:49.254Z,42.50
2022-12-15T05:07:34.978Z,42.60
2022-12-15T05:10:20.948Z,42.23
2022-12-15T05:13:06.345Z,41.27
2022-12-15T05:15:52.414Z,40.90
2022-12-15T05:18:39.687Z,41.57
2022-12-15T05:21:26.016Z,41.73
2022-12-15T05:24:11.926Z,41.57
2022-12-15T05:26:57.486Z,40.83
2022-12-15T05:29:42.982Z,39.33
2022-12-15T05:32:13.218Z,39.47
2022-12-15T05:34:42.745Z,39.53
2022-12-15T05:37:12.254Z,39.17
2022-12-15T05:39:40.428Z,38.93
2022-12-15T05:42:09.095Z,36.87
2022-12-15T05:44:37.274Z,36.33
2022-12-15T05:47:05.934Z,35.20
2022-12-15T05:49:34.386Z,33.73
2022-12-15T05:52:04.370Z,32.73
2022-12-15T05:54:32.923Z,33.27
2022-12-15T05:57:01.167Z,30.63
2022-12-15T05:59:29.325Z,29.67
2022-12-15T06:01:57.530Z,28.43
2022-12-15T06:04:26.043Z,27.37
2022-12-15T06:06:54.222Z,26.83
2022-12-15T06:09:23.804Z,27.30
2022-12-15T06:11:51.928Z,26.33
2022-12-15T06:14:20.083Z,26.87
2022-12-15T06:16:51.085Z,25.13
2022-12-15T06:19:20.684Z,25.67
2022-12-15T06:21:49.032Z,25.17
2022-12-15T06:24:17.198Z,25.17
2022-12-15T06:26:49.854Z,25.70
2022-12-15T06:29:18.880Z,25.83
2022-12-15T06:31:47.245Z,22.37
2022-12-15T06:34:17.147Z,21.83
2022-12-15T06:36:45.645Z,20.07
2022-12-15T06:39:15.734Z,19.33
2022-12-15T06:41:46.061Z,19.43
2022-12-15T06:44:15.949Z,18.83
2022-12-15T06:46:46.441Z,19.43
2022-12-15T06:49:15.732Z,18.37
2022-12-15T06:51:45.028Z,18.97
2022-12-15T06:54:13.550Z,19.40
2022-12-15T06:56:42.670Z,18.43
2022-12-15T06:59:13.368Z,16.73
2022-12-15T07:01:42.936Z,17.53
2022-12-15T07:04:11.729Z,17.60
2022-12-15T07:06:40.901Z,17.50
2022-12-15T07:09:13.558Z,16.50
2022-12-15T07:11:41.727Z,16.13
2022-12-15T07:14:12.331Z,16.33
2022-12-15T07:16:41.158Z,16.07
2022-12-15T07:19:13.052Z,15.40
2022-12-15T07:21:42.265Z,15.27
2022-12-15T07:24:12.678Z,15.60
2022-12-15T07:26:41.621Z,15.03
2022-12-15T07:29:10.098Z,15.33
2022-12-15T07:31:39.754Z,17.47
2022-12-15T07:34:08.237Z,17.13
2022-12-15T07:36:36.904Z,18.83
2022-12-15T07:39:06.010Z,17.23
2022-12-15T07:41:34.304Z,21.87
2022-12-15T07:44:03.131Z,22.40
2022-12-15T07:46:31.375Z,23.77
2022-12-15T07:49:01.028Z,22.53
2022-12-15T07:51:29.469Z,23.10
2022-12-15T07:53:57.619Z,22.60
2022-12-15T07:56:25.807Z,22.83
2022-12-15T07:58:54.345Z,22.90
2022-12-15T08:01:22.781Z,23.03
2022-12-15T08:03:51.337Z,23.07
2022-12-15T08:06:21.096Z,22.13
2022-12-15T08:08:51.230Z,22.97
2022-12-15T08:11:21.716Z,22.77
2022-12-15T08:14:02.522Z,22.30
2022-12-15T08:16:32.191Z,22.77
2022-12-15T08:19:00.719Z,22.00
2022-12-15T08:21:31.337Z,21.60
2022-12-15T08:24:00.901Z,20.97
2022-12-15T08:26:31.082Z,21.77
2022-12-15T08:29:32.043Z,20.70
2022-12-15T08:31:52.522Z,22.57
2022-12-15T08:34:21.225Z,23.10
2022-12-15T08:36:51.145Z,21.63
2022-12-15T08:39:20.605Z,22.43
2022-12-15T08:41:49.062Z,22.10
2022-12-15T08:44:17.428Z,20.17
2022-12-15T08:46:45.779Z,19.07
2022-12-15T08:49:18.043Z,21.70
2022-12-15T08:51:52.347Z,20.83
2022-12-15T08:54:21.329Z,20.70
2022-12-15T08:56:49.913Z,20.53
2022-12-15T08:59:19.238Z,21.03
2022-12-15T09:01:48.399Z,21.00
2022-12-15T09:04:17.134Z,21.53
2022-12-15T09:06:50.259Z,20.30
2022-12-15T09:09:20.829Z,20.77
2022-12-15T09:11:49.303Z,20.63
2022-12-15T09:14:19.617Z,20.80
2022-12-15T09:16:50.482Z,19.97
2022-12-15T09:19:19.309Z,18.87
2022-12-15T09:21:48.328Z,19.93
2022-12-15T09:24:26.065Z,19.70
2022-12-15T09:27:03.207Z,21.03
2022-12-15T09:29:31.701Z,20.37
2022-12-15T09:32:00.429Z,19.00
2022-12-15T09:34:28.880Z,20.10
2022-12-15T09:36:57.842Z,19.83
2022-12-15T09:39:26.278Z,19.30
2022-12-15T09:41:55.758Z,18.43
2022-12-15T09:44:28.414Z,16.70
2022-12-15T09:47:05.726Z,16.23
2022-12-15T09:49:45.936Z,17.43
2022-12-15T09:52:15.082Z,16.80
2022-12-15T09:54:44.961Z,17.60
2022-12-15T09:57:21.117Z,17.10
2022-12-15T09:59:58.099Z,16.40
2022-12-15T10:02:36.363Z,17.57
2022-12-15T10:05:11.654Z,17.20
2022-12-15T10:07:43.796Z,17.10
2022-12-15T10:10:16.876Z,17.67
2022-12-15T10:12:57.670Z,18.10
2022-12-15T10:15:32.907Z,17.27
2022-12-15T10:18:03.159Z,17.50
2022-12-15T10:20:32.208Z,17.53
2022-12-15T10:23:03.896Z,17.77
2022-12-15T10:25:33.300Z,16.80
2022-12-15T10:28:11.185Z,18.13
2022-12-15T10:30:45.480Z,16.43
2022-12-15T10:33:19.317Z,17.63
2022-12-15T10:35:48.487Z,17.83
2022-12-15T10:38:23.718Z,19.07
2022-12-15T10:40:53.166Z,17.60
2022-12-15T10:43:29.034Z,17.10
2022-12-15T10:46:13.815Z,17.00
2022-12-15T10:48:42.815Z,17.83
2022-12-15T10:51:21.017Z,17.47
2022-12-15T10:53:52.289Z,16.73
2022-12-15T10:56:30.633Z,16.67
2022-12-15T10:59:25.154Z,16.87
2022-12-15T11:01:54.868Z,17.13
2022-12-15T11:04:30.845Z,17.80
2022-12-15T11:07:00.699Z,16.83
2022-12-15T11:09:34.495Z,18.20
2022-12-15T11:12:21.742Z,18.00
2022-12-15T11:14:52.189Z,18.77
2022-12-15T11:17:23.457Z,16.67
2022-12-15T11:20:02.310Z,18.13
2022-12-15T11:22:41.946Z,18.27
2022-12-15T11:25:23.711Z,17.97
2022-12-15T11:27:56.010Z,18.07
2022-12-15T11:30:27.146Z,18.43
2022-12-15T11:33:00.986Z,19.23
2022-12-15T11:35:50.257Z,19.43
2022-12-15T11:38:29.775Z,18.27
2022-12-15T11:41:06.435Z,19.73
2022-12-15T11:44:06.263Z,18.90
2022-12-15T11:46:41.117Z,19.60
2022-12-15T11:49:41.384Z,17.77
2022-12-15T11:52:16.593Z,18.13
2022-12-15T11:54:51.181Z,20.97
2022-12-15T11:57:43.908Z,20.90
2022-12-15T12:00:16.404Z,20.23
2022-12-15T12:03:16.539Z,20.03
2022-12-15T12:06:12.170Z,20.67
2022-12-15T12:08:58.550Z,22.30
2022-12-15T12:11:33.808Z,22.27
2022-12-15T12:14:28.085Z,22.53
2022-12-15T12:17:03.132Z,23.03
2022-12-15T12:19:36.888Z,23.80
2022-12-15T12:22:15.265Z,23.73
2022-12-15T12:24:50.782Z,24.10
2022-12-15T12:27:30.140Z,24.53
2022-12-15T12:30:03.386Z,24.57
2022-12-15T12:32:41.316Z,24.47
2022-12-15T12:35:32.012Z,25.43
2022-12-15T12:38:04.869Z,25.37
2022-12-15T12:40:46.397Z,24.50
2022-12-15T12:43:23.585Z,26.23
2022-12-15T12:45:55.762Z,24.53
2022-12-15T12:48:31.666Z,23.67
2022-12-15T12:51:20.703Z,23.40
2022-12-15T12:53:50.522Z,24.90
2022-12-15T12:56:50.380Z,25.53
2022-12-15T12:59:52.141Z,28.20
2022-12-15T13:02:44.816Z,26.80
2022-12-15T13:05:32.512Z,26.47
2022-12-15T13:08:40.410Z,27.17
2022-12-15T13:11:56.529Z,26.43
2022-12-15T13:14:51.657Z,27.53
2022-12-15T13:17:29.090Z,28.33
2022-12-15T13:20:25.893Z,28.03
2022-12-15T13:22:55.585Z,29.33
2022-12-15T13:25:48.557Z,31.73
2022-12-15T13:28:59.546Z,30.83
2022-12-15T13:31:49.385Z,31.33
2022-12-15T13:34:29.174Z,34.83
2022-12-15T13:37:03.456Z,33.97
2022-12-15T13:39:53.971Z,35.40
2022-12-15T13:45:51.964Z,33.70
2022-12-15T13:48:35.065Z,34.73
2022-12-15T13:51:19.829Z,33.17
2022-12-15T13:53:52.287Z,33.60
2022-12-15T13:56:29.334Z,35.43
2022-12-15T13:59:04.135Z,35.20
2022-12-15T14:01:34.145Z,36.80
2022-12-15T14:04:07.755Z,37.10
2022-12-15T14:06:39.208Z,35.83
2022-12-15T14:09:13.633Z,36.63
2022-12-15T14:11:58.616Z,36.80
2022-12-15T14:14:30.348Z,36.47
2022-12-15T14:17:02.736Z,37.30
2022-12-15T14:19:42.205Z,37.67
2022-12-15T14:22:27.472Z,38.83
2022-12-15T14:25:03.215Z,38.63
2022-12-15T14:27:33.780Z,40.23
2022-12-15T14:30:23.391Z,39.00
2022-12-15T14:32:56.784Z,39.13
2022-12-15T14:35:31.534Z,39.43
2022-12-15T14:38:03.390Z,41.10
2022-12-15T14:40:31.869Z,39.80
2022-12-15T14:43:00.312Z,41.17
2022-12-15T14:45:32.581Z,40.67
2022-12-15T14:48:39.527Z,40.17
2022-12-15T14:50:52.465Z,41.43
2022-12-15T14:53:22.623Z,40.90
2022-12-15T14:55:51.579Z,42.33
2022-12-15T14:58:33.730Z,41.03
2022-12-15T15:01:03.869Z,39.70
2022-12-15T15:03:13.202Z,34.27
2022-12-15T15:03:39.131Z,40.73
2022-12-15T15:06:17.125Z,42.17
2022-12-15T15:08:50.049Z,40.17
2022-12-15T15:11:29.389Z,36.30
2022-12-15T15:14:01.248Z,40.63
2022-12-15T15:16:30.180Z,30.83
2022-12-15T15:19:03.057Z,36.37
2022-12-15T15:21:35.060Z,36.13
2022-12-15T15:24:04.994Z,33.77
2022-12-15T15:26:33.381Z,32.53
2022-12-15T15:29:01.666Z,34.03
2022-12-15T15:31:41.325Z,31.03
2022-12-15T15:34:11.631Z,30.87
2022-12-15T15:36:40.903Z,32.73
2022-12-15T15:39:15.263Z,29.93
2022-12-15T15:41:43.808Z,26.57
2022-12-15T15:44:14.838Z,28.47
2022-12-15T15:46:47.305Z,27.23
2022-12-15T15:49:20.345Z,25.67
2022-12-15T15:51:48.845Z,25.20
2022-12-15T15:54:19.109Z,25.27
2022-12-15T15:56:47.240Z,26.10
2022-12-15T15:59:17.449Z,27.37
2022-12-15T16:01:46.584Z,26.57
2022-12-15T16:04:16.290Z,26.83
2022-12-15T16:06:47.508Z,27.90
2022-12-15T16:09:17.031Z,27.27
2022-12-15T16:11:46.921Z,28.80
2022-12-15T16:14:16.941Z,30.63
2022-12-15T16:16:45.826Z,29.07
2022-12-15T16:19:14.087Z,31.67
2022-12-15T16:21:44.550Z,32.07
2022-12-15T16:24:17.285Z,30.67
2022-12-15T16:26:48.686Z,32.13
2022-12-15T16:29:18.568Z,32.37
2022-12-15T16:31:47.230Z,30.83
2022-12-15T16:34:16.653Z,31.60
2022-12-15T16:36:46.785Z,33.67
2022-12-15T16:39:24.659Z,31.53
2022-12-15T16:41:53.959Z,33.37
2022-12-15T16:44:22.378Z,34.03
2022-12-15T16:46:51.382Z,30.57
2022-12-15T16:49:19.941Z,33.07
2022-12-15T16:51:51.268Z,31.17
2022-12-15T16:54:21.947Z,30.90
2022-12-15T16:56:52.038Z,30.57
2022-12-15T16:59:36.424Z,28.83
2022-12-15T17:02:12.558Z,28.27
2022-12-15T17:04:41.057Z,30.50
2022-12-15T17:07:19.492Z,27.57
2022-12-15T17:09:48.747Z,30.43
2022-12-15T17:12:18.628Z,28.23
2022-12-15T17:14:47.138Z,27.33
2022-12-15T17:17:16.221Z,28.53
2022-12-15T17:20:11.890Z,28.13
2022-12-15T17:22:34.763Z,25.07
2022-12-15T17:25:03.481Z,25.70
2022-12-15T17:27:31.898Z,27.40
2022-12-15T17:30:01.045Z,25.17
2022-12-15T17:32:29.523Z,25.57
2022-12-15T17:34:58.129Z,24.90
2022-12-15T17:37:30.541Z,24.00
2022-12-15T17:40:05.087Z,21.87
2022-12-15T17:42:33.513Z,21.57
2022-12-15T17:45:02.020Z,23.40
2022-12-15T17:47:30.659Z,22.13
2022-12-15T17:49:59.161Z,21.80
2022-12-15T17:52:29.122Z,21.10
2022-12-15T17:54:58.437Z,21.17
2022-12-15T17:57:31.422Z,20.47
2022-12-15T18:00:02.012Z,20.10
2022-12-15T18:02:30.868Z,21.37
2022-12-15T18:04:59.626Z,20.67
2022-12-15T18:07:27.801Z,19.83
2022-12-15T18:09:55.997Z,20.57
2022-12-15T18:12:26.161Z,19.93
2022-12-15T18:14:56.822Z,19.30
2022-12-15T18:17:25.458Z,20.27
2022-12-15T18:19:53.578Z,19.43
2022-12-15T18:22:23.581Z,19.37
2022-12-15T18:24:53.410Z,20.23
2022-12-15T18:27:24.589Z,19.27
2022-12-15T18:29:52.912Z,15.57
2022-12-15T18:32:23.729Z,20.30
2022-12-15T18:34:52.355Z,19.50
2022-12-15T18:37:22.957Z,19.53
2022-12-15T18:39:51.632Z,18.57
2022-12-15T18:42:21.955Z,18.67
2022-12-15T18:44:52.186Z,18.57
2022-12-15T18:47:25.047Z,18.50
2022-12-15T18:49:53.460Z,16.53
2022-12-15T18:52:23.580Z,17.10
2022-12-15T18:54:54.129Z,16.63
2022-12-15T18:57:30.689Z,15.30
2022-12-15T18:59:59.934Z,15.90
2022-12-15T19:02:29.629Z,15.63
2022-12-15T19:04:57.944Z,14.73
2022-12-15T19:07:26.193Z,15.13
2022-12-15T19:09:54.753Z,14.67
2022-12-15T19:12:22.992Z,14.70
2022-12-15T19:14:52.546Z,14.97
2022-12-15T19:17:42.107Z,15.63
2022-12-15T19:20:34.085Z,14.60
2022-12-15T19:23:02.835Z,14.50
2022-12-15T19:25:31.777Z,14.53
2022-12-15T19:28:01.155Z,13.70
2022-12-15T19:30:30.452Z,11.77
2022-12-15T19:32:59.122Z,11.97
2022-12-15T19:35:29.421Z,13.00
2022-12-15T19:37:58.743Z,11.70
2022-12-15T19:40:30.320Z,12.63
2022-12-15T19:43:00.034Z,11.40
2022-12-15T19:45:29.236Z,11.17
2022-12-15T19:47:57.701Z,10.00
2022-12-15T19:50:26.743Z,9.27
2022-12-15T19:52:58.172Z,9.87
2022-12-15T19:55:28.465Z,10.57
2022-12-15T19:57:56.607Z,9.83
2022-12-15T20:00:25.289Z,9.07
2022-12-15T20:02:55.024Z,10.00
2022-12-15T20:05:24.317Z,9.67
2022-12-15T20:07:53.535Z,10.10
2022-12-15T20:10:31.240Z,10.47
2022-12-15T20:13:00.670Z,10.87
2022-12-15T20:15:29.035Z,10.37
2022-12-15T20:17:57.753Z,10.80
2022-12-15T20:20:28.846Z,11.23
2022-12-15T20:22:58.845Z,11.20
2022-12-15T20:25:31.197Z,12.20
2022-12-15T20:28:01.381Z,11.67
2022-12-15T20:30:32.750Z,12.07
2022-12-15T20:33:02.618Z,10.97
2022-12-15T20:35:33.317Z,12.13
2022-12-15T20:38:02.175Z,12.67
2022-12-15T20:40:32.388Z,11.30
2022-12-15T20:43:00.551Z,12.73
2022-12-15T20:45:28.836Z,12.67
2022-12-15T20:47:57.818Z,12.23
2022-12-15T20:50:29.401Z,13.27
2022-12-15T20:52:57.576Z,12.87
2022-12-15T20:55:25.772Z,12.67
2022-12-15T20:57:55.287Z,12.17
2022-12-15T21:00:24.056Z,12.13
2022-12-15T21:02:55.219Z,12.67
2022-12-15T21:05:25.820Z,12.80
2022-12-15T21:07:54.277Z,11.70
2022-12-15T21:10:22.556Z,11.77
2022-12-15T21:12:51.685Z,12.03
2022-12-15T21:15:22.894Z,10.13
2022-12-15T21:18:17.007Z,11.00
2022-12-15T21:20:42.931Z,11.20
2022-12-15T21:23:24.156Z,9.57
2022-12-15T21:25:53.441Z,9.50
2022-12-15T21:28:22.649Z,9.53
2022-12-15T21:30:52.939Z,8.80
2022-12-15T21:33:21.176Z,8.83
2022-12-15T21:35:49.551Z,8.27
2022-12-15T21:38:33.485Z,7.93
2022-12-15T21:41:04.133Z,8.03
2022-12-15T21:43:35.606Z,7.23
2022-12-15T21:46:14.430Z,7.33
2022-12-15T21:49:00.522Z,7.80
2022-12-15T21:51:31.620Z,7.57
2022-12-15T21:54:00.003Z,7.17
2022-12-15T21:56:29.668Z,7.60
2022-12-15T21:58:59.070Z,8.23
2022-12-15T22:01:31.602Z,8.00
2022-12-15T22:04:03.581Z,7.90
2022-12-15T22:06:31.870Z,7.80
2022-12-15T22:09:00.301Z,7.27
2022-12-15T22:11:30.808Z,8.33
2022-12-15T22:14:02.036Z,7.90
2022-12-15T22:16:31.651Z,8.50
2022-12-15T22:19:00.303Z,7.87
2022-12-15T22:21:28.509Z,7.60
2022-12-15T22:23:56.674Z,8.10
2022-12-15T22:26:29.958Z,7.67
2022-12-15T22:28:58.932Z,7.67
2022-12-15T22:31:27.517Z,7.17
2022-12-15T22:33:57.496Z,7.53
2022-12-15T22:36:25.903Z,7.67
2022-12-15T22:38:54.323Z,6.73
2022-12-15T22:41:24.123Z,7.33
2022-12-15T22:43:53.557Z,7.13
2022-12-15T22:46:25.472Z,6.80
2022-12-15T22:48:54.856Z,7.00
2022-12-15T22:51:25.202Z,7.17
2022-12-15T22:53:53.696Z,7.17
2022-12-15T22:56:24.541Z,7.03
2022-12-15T22:58:57.119Z,7.50
2022-12-15T23:01:26.869Z,7.10
2022-12-15T23:03:55.677Z,8.43
2022-12-15T23:06:25.539Z,8.20
2022-12-15T23:08:55.760Z,8.10
2022-12-15T23:11:38.974Z,7.50
2022-12-15T23:14:07.982Z,7.23
2022-12-15T23:16:35.942Z,8.00
2022-12-15T23:19:04.850Z,7.57
2022-12-15T23:21:34.993Z,6.90
2022-12-15T23:24:03.380Z,6.73
2022-12-15T23:26:31.833Z,7.17
2022-12-15T23:29:00.342Z,6.63
2022-12-15T23:31:28.982Z,6.73
2022-12-15T23:33:57.521Z,6.47
2022-12-15T23:36:25.941Z,6.17
2022-12-15T23:38:56.080Z,6.87
2022-12-15T23:41:24.536Z,6.53
2022-12-15T23:43:52.946Z,6.53
2022-12-15T23:46:21.460Z,6.47
2022-12-15T23:48:49.917Z,6.43
2022-12-15T23:51:21.333Z,5.53
2022-12-15T23:53:49.939Z,6.10
2022-12-15T23:56:22.515Z,5.87
2022-12-15T23:58:55.834Z,6.13
